createdAt,value
2023-07-29T00:02:02.082Z,1.92
2023-07-29T00:04:29.087Z,2.35
2023-07-29T00:06:56.092Z,2.38
2023-07-29T00:09:23.348Z,1.98
2023-07-29T00:11:50.340Z,2.67
2023-07-29T00:14:17.406Z,2.85
2023-07-29T00:16:44.558Z,2.42
2023-07-29T00:19:12.938Z,2.42
2023-07-29T00:21:40.021Z,2.25
2023-07-29T00:24:06.970Z,1.95
2023-07-29T00:26:34.450Z,2.03
2023-07-29T00:29:01.767Z,2.20
2023-07-29T00:31:28.853Z,1.88
2023-07-29T00:33:56.235Z,1.98
2023-07-29T00:36:24.687Z,2.00
2023-07-29T00:38:51.940Z,2.63
2023-07-29T00:41:19.520Z,1.73
2023-07-29T00:43:46.718Z,1.95
2023-07-29T00:46:14.144Z,2.00
2023-07-29T00:48:41.538Z,1.65
2023-07-29T00:51:08.850Z,1.80
2023-07-29T00:53:37.326Z,1.85
2023-07-29T00:56:04.687Z,1.60
2023-07-29T00:58:31.826Z,1.60
2023-07-29T01:00:59.141Z,1.60
2023-07-29T01:03:27.075Z,1.48
2023-07-29T01:06:08.562Z,1.27
2023-07-29T01:08:45.957Z,1.52
2023-07-29T01:11:25.993Z,1.30
2023-07-29T01:13:59.445Z,1.08
2023-07-29T01:16:34.090Z,1.42
2023-07-29T01:19:10.406Z,1.30
2023-07-29T01:21:38.404Z,1.50
2023-07-29T01:24:06.786Z,1.27
2023-07-29T01:26:34.121Z,1.13
2023-07-29T01:29:01.791Z,1.10
2023-07-29T01:31:34.707Z,1.15
2023-07-29T01:34:07.617Z,1.17
2023-07-29T01:36:39.621Z,1.40
2023-07-29T01:39:09.704Z,1.10
2023-07-29T01:41:37.403Z,0.88
2023-07-29T01:44:05.236Z,1.13
2023-07-29T01:46:34.847Z,1.02
2023-07-29T01:49:02.312Z,0.88
2023-07-29T01:51:29.381Z,1.00
2023-07-29T01:53:56.668Z,0.90
2023-07-29T01:56:25.143Z,1.10
2023-07-29T01:58:52.195Z,1.10
2023-07-29T02:01:19.477Z,1.00
2023-07-29T02:03:46.670Z,1.20
2023-07-29T02:06:13.679Z,0.98
2023-07-29T02:08:41.957Z,0.70
2023-07-29T02:11:09.620Z,1.23
2023-07-29T02:13:37.966Z,1.02
2023-07-29T02:16:05.467Z,0.95
2023-07-29T02:18:32.412Z,1.13
2023-07-29T02:20:59.421Z,0.75
2023-07-29T02:23:26.422Z,0.90
2023-07-29T02:25:53.360Z,0.70
2023-07-29T02:28:20.425Z,1.00
2023-07-29T02:31:08.825Z,0.73
2023-07-29T02:33:35.965Z,1.10
2023-07-29T02:36:03.054Z,1.10
2023-07-29T02:38:30.114Z,0.80
2023-07-29T02:40:57.099Z,0.93
2023-07-29T02:43:24.120Z,0.90
2023-07-29T02:45:52.525Z,0.82
2023-07-29T02:48:19.588Z,0.93
2023-07-29T02:50:46.679Z,0.80
2023-07-29T02:53:13.673Z,0.88
2023-07-29T02:55:41.736Z,0.80
2023-07-29T02:58:09.020Z,0.70
2023-07-29T03:00:36.714Z,0.80
2023-07-29T03:03:05.390Z,0.82
2023-07-29T03:05:32.436Z,0.88
2023-07-29T03:07:59.553Z,0.65
2023-07-29T03:10:26.641Z,0.65
2023-07-29T03:12:55.133Z,0.50
2023-07-29T03:15:25.665Z,0.73
2023-07-29T03:17:52.737Z,0.57
2023-07-29T03:20:21.451Z,0.85
2023-07-29T03:22:48.564Z,0.93
2023-07-29T03:25:15.644Z,0.65
2023-07-29T03:27:43.058Z,0.70
2023-07-29T03:30:11.040Z,0.77
2023-07-29T03:32:46.368Z,0.80
2023-07-29T03:37:41.982Z,0.65
2023-07-29T03:40:12.676Z,0.80
2023-07-29T03:42:39.687Z,0.60
2023-07-29T03:45:07.749Z,0.60
2023-07-29T03:47:34.821Z,0.85
2023-07-29T03:50:01.917Z,0.82
2023-07-29T03:52:28.965Z,0.88
2023-07-29T03:54:57.372Z,0.73
2023-07-29T03:57:24.342Z,0.82
2023-07-29T03:59:51.592Z,0.60
2023-07-29T04:02:18.651Z,0.90
2023-07-29T04:04:48.581Z,1.30
2023-07-29T04:07:15.780Z,0.88
2023-07-29T04:09:44.635Z,0.85
2023-07-29T04:12:13.220Z,0.73
2023-07-29T04:14:40.299Z,1.10
2023-07-29T04:17:08.016Z,1.27
2023-07-29T04:19:35.016Z,0.80
2023-07-29T04:22:02.023Z,0.98
2023-07-29T04:24:29.570Z,0.88
2023-07-29T04:26:56.557Z,1.00
2023-07-29T04:29:25.060Z,0.90
2023-07-29T04:31:52.289Z,1.23
2023-07-29T04:34:20.069Z,0.90
2023-07-29T04:36:47.241Z,1.00
2023-07-29T04:39:14.782Z,1.10
2023-07-29T04:41:41.967Z,1.30
2023-07-29T04:44:09.077Z,1.20
2023-07-29T04:46:37.859Z,1.20
2023-07-29T04:49:05.124Z,1.00
2023-07-29T04:51:35.403Z,1.10
2023-07-29T04:54:02.463Z,1.50
2023-07-29T04:56:29.433Z,1.25
2023-07-29T04:58:56.619Z,1.30
2023-07-29T05:01:23.783Z,1.10
2023-07-29T05:03:52.771Z,0.70
2023-07-29T05:06:20.020Z,1.02
2023-07-29T05:08:47.044Z,1.08
2023-07-29T05:11:14.121Z,0.80
2023-07-29T05:13:41.663Z,0.93
2023-07-29T05:16:08.757Z,0.90
2023-07-29T05:18:35.884Z,1.13
2023-07-29T05:21:04.581Z,1.10
2023-07-29T05:23:31.617Z,0.93
2023-07-29T05:25:58.595Z,0.80
2023-07-29T05:28:25.716Z,0.93
2023-07-29T05:30:53.556Z,0.90
2023-07-29T05:33:21.076Z,0.95
2023-07-29T05:35:48.575Z,1.10
2023-07-29T05:38:16.973Z,1.10
2023-07-29T05:40:43.997Z,0.88
2023-07-29T05:43:11.921Z,0.70
2023-07-29T05:45:39.003Z,1.00
2023-07-29T05:48:06.129Z,0.90
2023-07-29T05:50:33.232Z,1.00
2023-07-29T05:53:00.282Z,0.75
2023-07-29T05:55:28.706Z,0.75
2023-07-29T05:57:57.266Z,1.30
2023-07-29T06:00:24.581Z,0.88
2023-07-29T06:02:51.793Z,1.17
2023-07-29T06:05:19.160Z,0.98
2023-07-29T06:07:46.339Z,1.45
2023-07-29T06:10:14.831Z,0.93
2023-07-29T06:12:43.166Z,0.77
2023-07-29T06:15:10.886Z,0.80
2023-07-29T06:17:37.960Z,0.70
2023-07-29T06:20:06.840Z,0.90
2023-07-29T06:22:34.019Z,0.85
2023-07-29T06:25:01.056Z,0.82
2023-07-29T06:27:28.330Z,0.90
2023-07-29T06:29:56.743Z,1.20
2023-07-29T06:32:23.858Z,1.00
2023-07-29T06:34:52.925Z,0.82
2023-07-29T06:37:19.974Z,0.85
2023-07-29T06:39:47.249Z,0.80
2023-07-29T06:42:14.338Z,0.85
2023-07-29T06:44:41.554Z,0.73
2023-07-29T06:47:09.969Z,0.70
2023-07-29T06:49:36.953Z,0.60
2023-07-29T06:52:04.337Z,0.63
2023-07-29T06:54:31.314Z,0.50
2023-07-29T06:56:58.326Z,0.80
2023-07-29T06:59:25.797Z,0.68
2023-07-29T07:01:52.834Z,0.60
2023-07-29T07:04:21.322Z,0.47
2023-07-29T07:06:48.336Z,0.80
2023-07-29T07:09:15.367Z,0.63
2023-07-29T07:11:42.321Z,0.60
2023-07-29T07:14:09.358Z,0.60
2023-07-29T07:16:38.230Z,0.77
2023-07-29T07:19:05.635Z,0.95
2023-07-29T07:21:34.081Z,0.60
2023-07-29T07:24:01.110Z,0.40
2023-07-29T07:26:28.113Z,0.73
2023-07-29T07:28:55.171Z,0.40
2023-07-29T07:31:23.745Z,0.40
2023-07-29T07:33:50.852Z,0.32
2023-07-29T07:36:17.887Z,0.60
2023-07-29T07:38:46.429Z,0.30
2023-07-29T07:41:13.432Z,0.70
2023-07-29T07:43:40.375Z,0.50
2023-07-29T07:46:07.360Z,0.47
2023-07-29T07:48:34.561Z,0.70
2023-07-29T07:51:01.559Z,0.70
2023-07-29T07:53:28.693Z,0.60
2023-07-29T07:55:57.080Z,0.70
2023-07-29T07:58:24.053Z,0.50
2023-07-29T08:00:51.050Z,0.50
2023-07-29T08:03:19.157Z,0.68
2023-07-29T08:05:46.289Z,0.70
2023-07-29T08:08:13.281Z,0.60
2023-07-29T08:10:40.257Z,0.40
2023-07-29T08:13:09.270Z,0.60
2023-07-29T08:15:36.332Z,0.60
2023-07-29T08:18:03.464Z,0.50
2023-07-29T08:20:30.486Z,1.10
2023-07-29T08:22:57.952Z,0.60
2023-07-29T08:25:25.231Z,0.75
2023-07-29T08:27:52.187Z,0.73
2023-07-29T08:30:20.710Z,0.63
2023-07-29T08:32:48.210Z,0.52
2023-07-29T08:35:15.463Z,1.00
2023-07-29T08:37:42.445Z,0.70
2023-07-29T08:40:10.354Z,0.70
2023-07-29T08:42:42.726Z,0.88
2023-07-29T08:45:10.605Z,0.60
2023-07-29T08:47:39.212Z,0.93
2023-07-29T08:50:07.931Z,0.68
2023-07-29T08:52:36.514Z,0.63
2023-07-29T08:55:04.483Z,0.60
2023-07-29T08:57:32.219Z,0.60
2023-07-29T08:59:59.860Z,0.90
2023-07-29T09:02:27.159Z,0.70
2023-07-29T09:04:55.923Z,0.70
2023-07-29T09:07:23.169Z,0.70
2023-07-29T09:09:50.215Z,0.40
2023-07-29T09:12:17.523Z,0.68
2023-07-29T09:14:44.606Z,0.50
2023-07-29T09:17:11.893Z,0.68
2023-07-29T09:19:39.056Z,0.50
2023-07-29T09:22:19.162Z,0.90
2023-07-29T09:24:46.838Z,0.73
2023-07-29T09:27:25.288Z,1.08
2023-07-29T09:29:52.236Z,0.70
2023-07-29T09:32:20.967Z,0.90
2023-07-29T09:34:48.972Z,1.00
2023-07-29T09:37:22.613Z,0.60
2023-07-29T09:39:50.749Z,0.95
2023-07-29T09:42:19.799Z,0.60
2023-07-29T09:44:47.049Z,1.20
2023-07-29T09:47:22.454Z,1.02
2023-07-29T09:49:49.735Z,1.05
2023-07-29T09:52:17.743Z,0.88
2023-07-29T09:54:47.664Z,0.90
2023-07-29T09:57:15.679Z,0.80
2023-07-29T09:59:42.814Z,1.95
2023-07-29T10:02:15.379Z,0.80
2023-07-29T10:04:43.074Z,1.30
2023-07-29T10:07:10.764Z,0.82
2023-07-29T10:09:38.864Z,1.10
2023-07-29T10:12:09.064Z,0.90
2023-07-29T10:14:37.863Z,0.93
2023-07-29T10:17:06.309Z,1.00
2023-07-29T10:19:33.521Z,0.80
2023-07-29T10:22:02.494Z,1.23
2023-07-29T10:24:32.154Z,1.00
2023-07-29T10:27:00.728Z,1.02
2023-07-29T10:29:33.197Z,1.30
2023-07-29T10:32:04.451Z,1.30
2023-07-29T10:34:32.551Z,1.48
2023-07-29T10:37:00.296Z,1.13
2023-07-29T10:39:27.728Z,1.63
2023-07-29T10:41:59.565Z,1.10
2023-07-29T10:44:50.724Z,1.45
2023-07-29T10:47:19.469Z,1.45
2023-07-29T10:49:48.808Z,1.45
2023-07-29T10:52:17.975Z,1.30
2023-07-29T10:54:45.896Z,1.70
2023-07-29T10:57:18.969Z,1.55
2023-07-29T10:59:57.352Z,1.23
2023-07-29T11:02:30.744Z,1.25
2023-07-29T11:04:58.172Z,1.40
2023-07-29T11:10:03.796Z,1.70
2023-07-29T11:12:38.187Z,2.08
2023-07-29T11:15:14.888Z,1.57
2023-07-29T11:17:43.384Z,1.83
2023-07-29T11:20:11.439Z,1.55
2023-07-29T11:22:39.343Z,1.65
2023-07-29T11:25:08.519Z,2.33
2023-07-29T11:27:35.526Z,1.73
2023-07-29T11:30:06.137Z,1.75
2023-07-29T11:32:36.666Z,1.80
2023-07-29T11:35:05.198Z,1.83
2023-07-29T11:37:34.392Z,1.75
2023-07-29T11:40:01.805Z,2.03
2023-07-29T11:42:29.470Z,2.00
2023-07-29T11:44:58.438Z,1.17
2023-07-29T11:47:26.083Z,1.30
2023-07-29T11:49:54.757Z,1.92
2023-07-29T11:52:21.839Z,1.30
2023-07-29T11:54:51.134Z,1.60
2023-07-29T11:57:19.445Z,1.80
2023-07-29T11:59:47.907Z,1.27
2023-07-29T12:02:17.693Z,1.83
2023-07-29T12:04:47.223Z,1.50
2023-07-29T12:07:19.806Z,1.73
2023-07-29T12:09:47.853Z,1.45
2023-07-29T12:12:16.048Z,1.05
2023-07-29T12:14:46.601Z,1.48
2023-07-29T12:17:14.108Z,1.15
2023-07-29T12:19:43.024Z,1.42
2023-07-29T12:22:11.709Z,1.35
2023-07-29T12:24:41.308Z,1.27
2023-07-29T12:27:13.427Z,1.80
2023-07-29T12:29:44.810Z,1.13
2023-07-29T12:32:12.281Z,1.52
2023-07-29T12:34:40.468Z,1.08
2023-07-29T12:37:08.513Z,0.93
2023-07-29T12:39:37.099Z,1.38
2023-07-29T12:42:06.180Z,1.10
2023-07-29T12:44:34.668Z,1.00
2023-07-29T12:47:02.509Z,1.48
2023-07-29T12:49:30.502Z,1.40
2023-07-29T12:51:57.860Z,1.50
2023-07-29T12:54:24.984Z,1.13
2023-07-29T12:56:52.032Z,1.30
2023-07-29T12:59:20.474Z,1.33
2023-07-29T13:01:47.738Z,1.30
2023-07-29T13:04:14.840Z,1.48
2023-07-29T13:06:41.936Z,2.90
2023-07-29T13:09:08.973Z,2.97
2023-07-29T13:11:36.522Z,3.70
2023-07-29T13:14:03.799Z,5.90
2023-07-29T13:16:32.617Z,3.42
2023-07-29T13:19:00.097Z,7.38
2023-07-29T13:21:27.137Z,6.82
2023-07-29T13:23:54.187Z,2.67
2023-07-29T13:26:21.282Z,1.73
2023-07-29T13:28:48.479Z,2.63
2023-07-29T13:31:15.811Z,4.78
2023-07-29T13:33:44.233Z,3.67
2023-07-29T13:36:11.455Z,2.30
2023-07-29T13:38:38.489Z,2.28
2023-07-29T13:41:05.887Z,2.80
2023-07-29T13:43:33.226Z,3.05
2023-07-29T13:46:00.464Z,2.97
2023-07-29T13:48:27.537Z,1.83
2023-07-29T13:50:56.191Z,1.88
2023-07-29T13:53:23.232Z,2.00
2023-07-29T13:55:50.641Z,1.52
2023-07-29T13:58:17.714Z,2.20
2023-07-29T14:00:44.846Z,1.38
2023-07-29T14:03:11.964Z,1.25
2023-07-29T14:05:39.088Z,1.10
2023-07-29T14:08:07.498Z,1.45
2023-07-29T14:10:34.606Z,1.25
2023-07-29T14:13:01.627Z,1.27
2023-07-29T14:15:29.564Z,1.38
2023-07-29T14:17:56.636Z,1.05
2023-07-29T14:20:24.334Z,1.20
2023-07-29T14:22:51.382Z,1.20
2023-07-29T14:25:19.810Z,0.98
2023-07-29T14:27:47.016Z,1.02
2023-07-29T14:30:14.140Z,1.02
2023-07-29T14:32:41.167Z,0.90
2023-07-29T14:35:09.236Z,0.90
2023-07-29T14:37:36.502Z,1.27
2023-07-29T14:40:03.936Z,1.08
2023-07-29T14:42:34.579Z,1.10
2023-07-29T14:45:03.148Z,0.90
2023-07-29T14:47:33.803Z,0.98
2023-07-29T14:50:00.954Z,1.20
2023-07-29T14:52:28.128Z,0.93
2023-07-29T14:54:55.266Z,0.90
2023-07-29T14:57:22.849Z,1.05
2023-07-29T14:59:51.334Z,0.80
2023-07-29T15:02:19.306Z,1.05
2023-07-29T15:04:46.628Z,1.25
2023-07-29T15:07:13.614Z,1.70
2023-07-29T15:09:40.587Z,7.88
2023-07-29T15:12:08.884Z,21.73
2023-07-29T15:14:35.940Z,7.10
2023-07-29T15:17:04.773Z,6.63
2023-07-29T15:19:31.972Z,2.85
2023-07-29T15:21:59.045Z,10.10
2023-07-29T15:24:26.110Z,3.78
2023-07-29T15:26:53.243Z,1.92
2023-07-29T15:29:20.269Z,3.75
2023-07-29T15:31:47.407Z,7.18
2023-07-29T15:34:16.483Z,4.22
2023-07-29T15:36:43.545Z,18.92
2023-07-29T15:39:10.595Z,65.35
2023-07-29T15:41:37.868Z,47.03
2023-07-29T15:44:05.104Z,78.95
2023-07-29T15:46:32.181Z,21.92
2023-07-29T15:49:00.850Z,10.65
2023-07-29T15:51:29.338Z,18.00
2023-07-29T15:53:56.364Z,9.35
2023-07-29T15:56:23.415Z,6.28
2023-07-29T15:58:50.498Z,8.35
2023-07-29T16:01:17.608Z,9.05
2023-07-29T16:03:44.811Z,7.88
2023-07-29T16:06:11.931Z,7.32
2023-07-29T16:08:40.270Z,4.30
2023-07-29T16:11:07.575Z,6.30
2023-07-29T16:13:34.637Z,5.63
2023-07-29T16:16:01.637Z,4.40
2023-07-29T16:18:28.646Z,3.78
2023-07-29T16:20:57.153Z,3.25
2023-07-29T16:23:24.121Z,3.38
2023-07-29T16:25:52.477Z,3.30
2023-07-29T16:28:19.517Z,4.00
2023-07-29T16:30:46.792Z,5.05
2023-07-29T16:33:14.004Z,4.50
2023-07-29T16:35:42.500Z,3.10
2023-07-29T16:38:09.585Z,3.45
2023-07-29T16:40:36.865Z,3.47
2023-07-29T16:43:05.224Z,3.15
2023-07-29T16:45:32.449Z,3.22
2023-07-29T16:47:59.534Z,3.30
2023-07-29T16:50:26.770Z,3.10
2023-07-29T16:52:54.897Z,3.72
2023-07-29T16:55:22.345Z,3.25
2023-07-29T16:57:49.453Z,2.78
2023-07-29T17:00:18.008Z,3.03
2023-07-29T17:02:45.294Z,3.78
2023-07-29T17:05:12.393Z,2.65
2023-07-29T17:07:39.567Z,2.78
2023-07-29T17:10:07.616Z,2.72
2023-07-29T17:12:34.582Z,2.70
2023-07-29T17:15:03.030Z,2.58
2023-07-29T17:17:31.489Z,2.92
2023-07-29T17:19:58.522Z,3.05
2023-07-29T17:22:25.609Z,2.50
2023-07-29T17:24:52.840Z,2.28
2023-07-29T17:27:19.802Z,2.30
2023-07-29T17:29:47.210Z,2.65
2023-07-29T17:32:14.413Z,2.92
2023-07-29T17:34:42.795Z,2.17
2023-07-29T17:37:09.852Z,2.45
2023-07-29T17:39:38.838Z,2.75
2023-07-29T17:42:07.580Z,2.38
2023-07-29T17:44:34.902Z,2.03
2023-07-29T17:47:01.905Z,2.03
2023-07-29T17:49:29.094Z,2.10
2023-07-29T17:51:57.528Z,2.40
2023-07-29T17:54:24.576Z,2.15
2023-07-29T17:56:51.545Z,2.20
2023-07-29T17:59:18.688Z,1.90
2023-07-29T18:01:49.483Z,2.58
2023-07-29T18:04:16.669Z,2.10
2023-07-29T18:06:43.824Z,2.30
2023-07-29T18:09:12.327Z,2.17
2023-07-29T18:11:41.797Z,2.25
2023-07-29T18:14:09.552Z,2.13
2023-07-29T18:16:39.268Z,1.88
2023-07-29T18:19:06.678Z,2.00
2023-07-29T18:21:33.725Z,2.10
2023-07-29T18:24:00.731Z,1.90
2023-07-29T18:26:29.208Z,2.05
2023-07-29T18:28:58.552Z,1.98
2023-07-29T18:31:26.682Z,1.80
2023-07-29T18:33:54.028Z,1.88
2023-07-29T18:36:21.163Z,1.95
2023-07-29T18:38:48.189Z,1.75
2023-07-29T18:41:16.329Z,2.15
2023-07-29T18:43:44.713Z,1.80
2023-07-29T18:46:11.806Z,2.08
2023-07-29T18:48:38.928Z,1.65
2023-07-29T18:51:06.066Z,2.20
2023-07-29T18:53:33.092Z,1.90
2023-07-29T18:56:00.098Z,1.50
2023-07-29T18:58:27.146Z,1.80
2023-07-29T19:00:55.582Z,1.65
2023-07-29T19:03:24.205Z,2.35
2023-07-29T19:05:56.235Z,2.10
2023-07-29T19:08:23.184Z,1.90
2023-07-29T19:10:50.298Z,1.70
2023-07-29T19:13:17.281Z,1.60
2023-07-29T19:15:53.386Z,1.90
2023-07-29T19:18:23.295Z,2.10
2023-07-29T19:20:50.716Z,1.65
2023-07-29T19:23:17.865Z,2.38
2023-07-29T19:25:46.166Z,2.03
2023-07-29T19:28:13.349Z,1.88
2023-07-29T19:30:40.496Z,2.55
2023-07-29T19:33:08.773Z,2.42
2023-07-29T19:35:37.196Z,1.83
2023-07-29T19:38:04.493Z,1.73
2023-07-29T19:40:35.360Z,2.03
2023-07-29T19:43:02.456Z,1.20
2023-07-29T19:45:29.463Z,1.90
2023-07-29T19:47:57.629Z,1.98
2023-07-29T19:50:25.428Z,1.63
2023-07-29T19:52:53.826Z,1.60
2023-07-29T19:55:20.877Z,1.80
2023-07-29T19:57:47.917Z,1.75
2023-07-29T20:00:15.005Z,1.73
2023-07-29T20:02:42.117Z,1.45
2023-07-29T20:05:09.962Z,2.10
2023-07-29T20:07:36.971Z,1.67
2023-07-29T20:10:06.400Z,1.67
2023-07-29T20:12:33.507Z,1.60
2023-07-29T20:15:04.318Z,1.63
2023-07-29T20:17:31.613Z,1.55
2023-07-29T20:19:58.645Z,1.73
2023-07-29T20:22:25.617Z,1.77
2023-07-29T20:24:53.007Z,1.70
2023-07-29T20:27:21.347Z,1.35
2023-07-29T20:29:48.498Z,1.75
2023-07-29T20:32:15.493Z,1.85
2023-07-29T20:34:42.506Z,1.50
2023-07-29T20:37:09.509Z,2.15
2023-07-29T20:39:36.715Z,2.22
2023-07-29T20:42:03.997Z,2.33
2023-07-29T20:44:33.631Z,1.70
2023-07-29T20:47:02.296Z,1.92
2023-07-29T20:49:29.508Z,1.77
2023-07-29T20:51:56.468Z,2.65
2023-07-29T20:54:23.517Z,1.75
2023-07-29T20:56:50.513Z,1.85
2023-07-29T20:59:17.563Z,1.75
2023-07-29T21:01:46.198Z,1.98
2023-07-29T21:04:13.426Z,2.22
2023-07-29T21:06:40.440Z,1.67
2023-07-29T21:09:07.426Z,1.80
2023-07-29T21:11:34.472Z,1.77
2023-07-29T21:14:01.894Z,1.65
2023-07-29T21:16:29.311Z,2.17
2023-07-29T21:18:58.817Z,1.90
2023-07-29T21:21:25.909Z,3.42
2023-07-29T21:23:52.965Z,2.33
2023-07-29T21:26:19.945Z,2.60
2023-07-29T21:28:47.078Z,2.10
2023-07-29T21:31:16.943Z,2.47
2023-07-29T21:33:45.307Z,2.35
2023-07-29T21:36:13.800Z,2.38
2023-07-29T21:38:41.941Z,2.42
2023-07-29T21:41:08.994Z,2.78
2023-07-29T21:43:36.352Z,2.70
2023-07-29T21:46:03.623Z,2.75
2023-07-29T21:48:30.825Z,3.13
2023-07-29T21:50:57.920Z,2.47
2023-07-29T21:53:26.533Z,2.60
2023-07-29T21:55:53.741Z,1.92
2023-07-29T21:58:21.930Z,2.65
2023-07-29T22:00:51.930Z,2.60
2023-07-29T22:03:18.942Z,2.30
2023-07-29T22:05:46.241Z,2.47
2023-07-29T22:08:13.349Z,2.97
2023-07-29T22:10:41.751Z,2.03
2023-07-29T22:13:08.798Z,2.40
2023-07-29T22:15:36.924Z,2.10
2023-07-29T22:18:04.191Z,2.60
2023-07-29T22:20:31.552Z,3.10
2023-07-29T22:22:58.672Z,2.22
2023-07-29T22:25:25.705Z,2.92
2023-07-29T22:27:54.204Z,2.72
2023-07-29T22:30:21.611Z,3.17
2023-07-29T22:32:49.580Z,2.35
2023-07-29T22:35:16.932Z,2.10
2023-07-29T22:37:44.039Z,3.15
2023-07-29T22:40:11.924Z,3.00
2023-07-29T22:42:39.090Z,2.60
2023-07-29T22:45:08.644Z,2.95
2023-07-29T22:47:35.766Z,2.58
2023-07-29T22:50:03.521Z,2.33
2023-07-29T22:52:30.529Z,2.78
2023-07-29T22:54:57.510Z,2.30
2023-07-29T22:57:24.584Z,3.08
2023-07-29T22:59:51.700Z,2.55
2023-07-29T23:02:22.291Z,2.63
2023-07-29T23:04:49.535Z,2.92
2023-07-29T23:07:16.551Z,2.00
2023-07-29T23:09:43.574Z,2.50
2023-07-29T23:12:10.789Z,1.77
2023-07-29T23:14:37.895Z,2.25
2023-07-29T23:17:05.216Z,1.65
2023-07-29T23:19:33.522Z,1.58
2023-07-29T23:22:00.586Z,1.80
2023-07-29T23:24:27.596Z,1.83
2023-07-29T23:26:54.657Z,1.30
2023-07-29T23:29:21.709Z,2.03
2023-07-29T23:31:49.043Z,1.02
2023-07-29T23:34:16.086Z,1.20
2023-07-29T23:36:44.451Z,1.08
2023-07-29T23:39:11.493Z,1.40
2023-07-29T23:41:38.670Z,0.98
2023-07-29T23:44:05.848Z,0.98
2023-07-29T23:46:32.885Z,1.10
2023-07-29T23:49:00.159Z,1.50
2023-07-29T23:51:27.181Z,1.10
2023-07-29T23:53:55.583Z,1.27
2023-07-29T23:56:22.748Z,1.10
2023-07-29T23:58:49.751Z,1.30
